• Join FlightAware (Why Join?)
  • Login
  • US Flag 
01:21PM EDT


 

Airport Tracker/Info


-or-


 

Live Flight TrackerFlight Track Log ✈ SWA1035 ✈ 02-May-2013 ✈ KMCI - KABQ

Flight Track Log - Related Links

Times and Time Zones

All times are in EDT time to prevent confusion due to time zone crossing. See the SWA1035 flight status page for this flight to view local times or setup timezone preferences in your user account.

Time Position Orientation Groundspeed Altitude Reporting Facility
EDT Latitude Longitude Course Direction KTS MPH feet Rate Location/Type
02:27PM 39.3167 -94.7167 262° West 135 155 1,700  Level Kansas City TRACON
02:28PM 39.3372 -94.7258 341° North 134 154 3,300 2,520 Climbing Kansas City Center
02:29PM 39.3558 -94.7914 290° West 254 292 5,900 3,480 Climbing Kansas City Center
02:30PM 39.3433 -94.8953 261° West 259 298 10,600 3,480 Climbing Kansas City Center
02:31PM 39.3244 -94.9967 256° West 304 350 13,200 2,160 Climbing Kansas City Center
02:32PM 39.3017 -95.1214 257° West 320 368 15,100 1,920 Climbing Kansas City Center
02:33PM 39.1872 -95.5317 262° West  Level FlightAware Approximate
02:33PM 39.2792 -95.2467 257° West 337 388 17,200  Level Kansas City Center
02:34PM 39.2553 -95.3694 256° West 351 404 19,500 2,040 Climbing Kansas City Center
02:35PM 39.2342 -95.4856 257° West 367 422 21,500 2,040 Climbing Kansas City Center
02:36PM 39.2056 -95.6378 256° West 391 450 23,700 2,040 Climbing Kansas City Center
02:37PM 39.1767 -95.7728 255° West 409 471 25,700 2,160 Climbing Kansas City Center
02:38PM 39.1394 -95.9314 253° West 414 476 28,200 2,040 Climbing Kansas City Center
02:39PM 39.1081 -96.0678 254° West 414 476 30,000 1,500 Climbing Kansas City Center
02:40PM 39.0706 -96.2269 253° West 417 480 31,300 1,680 Climbing Kansas City Center
02:41PM 39.0389 -96.3631 253° West 413 475 33,500 2,220 Climbing Kansas City Center
02:42PM 39.0044 -96.5128 254° West 394 453 35,900 1,200 Climbing Kansas City Center
02:43PM 38.9744 -96.6211 250° West 387 445 36,000 300 Climbing Kansas City Center
02:44PM 38.9369 -96.7781 253° West 385 443 36,600 720 Climbing Kansas City Center
02:45PM 38.9078 -96.9175 255° West 399 459 37,600 660 Climbing Kansas City Center
02:46PM 38.8758 -97.0525 253° West 399 459 38,000 180 Climbing Kansas City Center
02:47PM 38.8428 -97.1881 253° West 399 459 38,000  Level Kansas City Center
02:48PM 38.8089 -97.3242 252° West 401 461 38,000  Level Kansas City Center
02:49PM 38.7764 -97.4597 253° West 401 461 38,000  Level Kansas City Center
02:50PM 38.7378 -97.6108 252° West 397 457 38,000  Level Kansas City Center
02:51PM 38.6989 -97.7642 252° West 403 464 38,000  Level Kansas City Center
02:53PM 38.6675 -97.8964 253° West 410 472 38,000  Level Kansas City Center
02:54PM 38.6336 -98.0342 253° West 409 471 38,000  Level Kansas City Center
02:55PM 38.5972 -98.1739 252° West 415 478 38,000  Level Kansas City Center
02:56PM 38.5636 -98.3128 253° West 412 474 38,000  Level Kansas City Center
02:57PM 38.5217 -98.4750 252° West 405 466 38,000  Level Kansas City Center
02:58PM 38.4875 -98.6111 252° West 404 465 38,000  Level Kansas City Center
02:59PM 38.4519 -98.7461 251° West 403 464 38,000  Level Kansas City Center
03:00PM 38.4161 -98.8828 252° West 407 468 38,000  Level Kansas City Center
03:01PM 38.3817 -99.0186 252° West 406 467 38,000  Level Kansas City Center
03:02PM 38.3456 -99.1544 251° West 406 467 38,000  Level Kansas City Center
03:03PM 38.3019 -99.3156 251° West 403 464 38,000  Level Kansas City Center
03:04PM 38.2675 -99.4508 252° West 403 464 38,000  Level Kansas City Center
03:05PM 38.2272 -99.5953 250° West 405 466 38,000  Level Kansas City Center
03:06PM 38.1928 -99.7275 252° West 410 472 38,000  Level Kansas City Center
03:07PM 38.1514 -99.8797 251° West 409 471 38,000  Level Kansas City Center
03:08PM 38.1158 -100.0100 251° West 409 471 38,000  Level Kansas City Center
03:09PM 38.0750 -100.1606 251° West 405 466 38,000  Level Kansas City Center
03:10PM 38.0406 -100.2889 251° West 404 465 38,000  Level Kansas City Center
03:11PM 38.0050 -100.4169 251° West 403 464 38,000  Level Kansas City Center
03:12PM 37.9633 -100.5639 250° West 399 459 38,000  Level Kansas City Center
03:13PM 37.9289 -100.6894 251° West 397 457 38,000  Level Kansas City Center
03:14PM 37.8747 -100.8278 244° Southwest 396 456 38,000  Level Kansas City Center
03:15PM 37.8244 -100.9439 241° Southwest 399 459 38,000  Level Kansas City Center
03:16PM 37.7653 -101.0783 241° Southwest 399 459 38,000  Level Kansas City Center
03:17PM 37.7056 -101.2150 241° Southwest 400 460 38,000  Level Kansas City Center
03:18PM 37.6539 -101.3308 241° Southwest 400 460 38,000  Level Kansas City Center
03:19PM 37.6022 -101.4492 241° Southwest 402 463 38,000  Level Kansas City Center
03:20PM 37.5408 -101.5869 241° Southwest 404 465 38,000  Level Kansas City Center
03:21PM 37.4894 -101.7031 241° Southwest 399 459 38,000  Level Kansas City Center
03:22PM 37.4281 -101.8414 241° Southwest 404 465 38,000  Level Kansas City Center
03:23PM 37.3758 -101.9581 241° Southwest 403 464 38,000  Level Kansas City Center
03:24PM 37.3139 -102.0950 240° Southwest 403 464 38,000  Level Kansas City Center
03:26PM 37.2600 -102.2144 240° Southwest 408 470 38,000  Level Kansas City Center
03:27PM 37.1867 -102.3814 241° Southwest 415 478 38,000  Level Albuquerque Center
03:28PM 37.1325 -102.4967 240° Southwest 418 481 38,000  Level Albuquerque Center
03:29PM 37.0761 -102.6250 241° Southwest 418 481 38,000  Level Albuquerque Center
03:30PM 37.0103 -102.7656 240° Southwest 418 481 38,000  Level Albuquerque Center
03:31PM 36.9550 -102.8872 240° Southwest 419 482 38,000  Level Albuquerque Center
03:32PM 36.8894 -103.0269 240° Southwest 418 481 38,000  Level Albuquerque Center
03:33PM 36.8333 -103.1489 240° Southwest 419 482 38,000  Level Albuquerque Center
03:34PM 36.7675 -103.2897 240° Southwest 418 481 38,000  Level Albuquerque Center
03:35PM 36.7114 -103.4106 240° Southwest 420 483 38,000  Level Albuquerque Center
03:36PM 36.6475 -103.5444 239° Southwest 420 483 38,000  Level Albuquerque Center
03:37PM 36.5886 -103.6708 240° Southwest 419 482 38,000  Level Albuquerque Center
03:38PM 36.5306 -103.7928 239° Southwest 412 474 38,000  Level Albuquerque Center
03:39PM 36.4722 -103.9142 239° Southwest 408 470 38,000  Level Albuquerque Center
03:40PM 36.4144 -104.0369 240° Southwest 409 471 38,000  Level Albuquerque Center
03:41PM 36.3553 -104.1569 239° Southwest 407 468 38,000  Level Albuquerque Center
03:42PM 36.2969 -104.2769 239° Southwest 404 465 38,000  Level Albuquerque Center
03:43PM 36.2297 -104.4169 239° Southwest 403 464 38,000  Level Albuquerque Center
03:44PM 36.1719 -104.5369 239° Southwest 404 465 38,000  Level Albuquerque Center
03:45PM 36.1133 -104.6569 239° Southwest 405 466 38,000 -240 Level Albuquerque Center
03:46PM 36.0547 -104.7789 239° Southwest 409 471 37,600 -660 Descending Albuquerque Center
03:47PM 35.9936 -104.9011 238° Southwest 413 475 36,700 -1,020 Descending Albuquerque Center
03:48PM 35.9350 -105.0219 239° Southwest 410 472 35,600 -1,020 Descending Albuquerque Center
03:49PM 35.8775 -105.1369 238° Southwest 396 456 34,700 -840 Descending Albuquerque Center
03:50PM 35.8083 -105.2756 238° Southwest 401 461 34,000 -360 Descending Albuquerque Center
03:51PM 35.7517 -105.3911 239° Southwest 397 457 34,000  Level Albuquerque Center
03:52PM 35.6992 -105.5108 242° Southwest 398 458 34,000 -840 Level Albuquerque Center
03:54PM 35.6892 -105.6214 264° West 377 434 32,300 -2,040 Descending Albuquerque Center
03:55PM 35.6736 -105.7686 263° West 365 420 29,900 -2,100 Descending Albuquerque Center
03:56PM 35.6636 -105.8842 264° West 348 400 28,000 -1,860 Descending Albuquerque Center
03:57PM 35.6531 -105.9956 263° West 333 383 26,100 -1,980 Descending Albuquerque Center
03:58PM 35.6414 -106.1117 263° West 339 390 24,000 -1,980 Descending Albuquerque Center
03:59PM 35.6308 -106.2272 264° West 344 396 22,100 -2,100 Descending Albuquerque Center
04:00PM 35.6161 -106.3517 262° West 340 391 19,900 -2,160 Descending Albuquerque Center
04:00PM 35.6106 -106.4053 263° West 337 388 19,000 -1,620 Descending Albuquerque Center
04:01PM 35.6067 -106.4564 265° West 339 390 18,100 -1,680 Descending Albuquerque Center
04:01PM 35.5969 -106.5239 260° West 330 380 17,300 -2,160 Descending Albuquerque Center
04:02PM 35.5747 -106.5861 246° West 345 397 15,900 -2,340 Descending Albuquerque Center
04:02PM 35.5350 -106.6081 204° Southwest 377 434 15,000 -1,500 Descending Albuquerque Center
04:03PM 35.4800 -106.6392 205° Southwest 372 428 14,400 -1,380 Descending Albuquerque Center
04:03PM 35.4356 -106.6625 203° Southwest 359 413 13,500 -1,680 Descending Albuquerque Center
04:04PM 35.3911 -106.6869 204° Southwest 359 413 12,700 -1,560 Descending Albuquerque Center
04:04PM 35.3575 -106.7033 202° Southwest 323 372 12,100 -1,500 Descending Albuquerque Center
04:05PM 35.3131 -106.7281 204° Southwest 320 368 11,200 -1,500 Descending Albuquerque Center
04:05PM 35.2775 -106.7475 204° Southwest 291 335 10,500 -1,500 Descending Albuquerque Center
04:06PM 35.2403 -106.7700 206° Southwest 299 344 9,700 -1,200 Descending Albuquerque Center
04:06PM 35.1981 -106.7939 205° Southwest 285 328 9,300 -720 Descending Albuquerque Center
04:07PM 35.1700 -106.8136 210° Southwest 291 335 9,000 -300 Descending Albuquerque Center
04:07PM 35.1336 -106.8156 183° South 236 272 9,000 -420 Level Albuquerque Center
04:08PM 35.1117 -106.7994 149° Southeast 251 289 8,600 -900 Descending Albuquerque Center
04:08PM 35.0903 -106.7747 137° Southeast 191 220 8,100 -1,200 Descending Albuquerque Center
04:09PM 35.0650 -106.7406 132° Southeast 211 243 7,400 -1,020 Descending Albuquerque Center
04:09PM 35.0569 -106.7289 130° Southeast 180 207 7,100 -900 Descending Albuquerque Center
04:10PM 35.0453 -106.6922 111° Southeast 179 206 6,500 -840 Descending Albuquerque Center
04:10PM 35.0436 -106.6778 98° East 146 168 6,300 -780 Descending Albuquerque Center
04:11PM 35.0436 -106.6411 90° East 160 184 5,700 -600 Descending Albuquerque Center
04:12PM 35.0450 -106.5956 88° East 156 180 5,300 -420 Descending Albuquerque Center
04:14PM 35.0333 -106.6000 90° East  Level FlightAware Approximate